sensor_id;sensor_type;location;lat;lon;timestamp;P1;durP1;ratioP1;P2;durP2;ratioP2
50906;SDS011;36882;27.680;85.304;2023-05-07T07:03:00;26.70;;;18.45;;
50906;SDS011;36882;27.680;85.304;2023-05-07T07:09:04;30.15;;;18.10;;
50906;SDS011;36882;27.680;85.304;2023-05-07T07:11:50;29.35;;;20.42;;
50906;SDS011;36882;27.680;85.304;2023-05-07T07:14:35;34.10;;;21.58;;
50906;SDS011;36882;27.680;85.304;2023-05-07T07:17:27;30.70;;;20.83;;
50906;SDS011;36882;27.680;85.304;2023-05-07T07:20:21;32.30;;;22.40;;
50906;SDS011;36882;27.680;85.304;2023-05-07T07:23:19;28.27;;;21.05;;
50906;SDS011;36882;27.680;85.304;2023-05-07T07:33:11;34.17;;;23.02;;
50906;SDS011;36882;27.680;85.304;2023-05-07T07:35:59;30.75;;;20.98;;
50906;SDS011;36882;27.680;85.304;2023-05-07T07:38:42;27.10;;;21.05;;
50906;SDS011;36882;27.680;85.304;2023-05-07T07:41:34;29.80;;;20.42;;
50906;SDS011;36882;27.680;85.304;2023-05-07T07:44:43;46.45;;;23.65;;
50906;SDS011;36882;27.680;85.304;2023-05-07T07:47:34;31.73;;;21.25;;
50906;SDS011;36882;27.680;85.304;2023-05-07T07:50:12;42.33;;;21.95;;
50906;SDS011;36882;27.680;85.304;2023-05-07T07:53:21;30.52;;;22.20;;
50906;SDS011;36882;27.680;85.304;2023-05-07T07:56:04;30.35;;;23.15;;
50906;SDS011;36882;27.680;85.304;2023-05-07T07:58:37;41.60;;;24.70;;
50906;SDS011;36882;27.680;85.304;2023-05-07T08:01:14;30.38;;;23.65;;
50906;SDS011;36882;27.680;85.304;2023-05-07T08:04:16;32.38;;;22.58;;
50906;SDS011;36882;27.680;85.304;2023-05-07T08:06:50;30.00;;;22.58;;
50906;SDS011;36882;27.680;85.304;2023-05-07T08:09:24;34.13;;;24.02;;
50906;SDS011;36882;27.680;85.304;2023-05-07T08:11:56;33.10;;;22.25;;
50906;SDS011;36882;27.680;85.304;2023-05-07T08:14:26;38.53;;;25.23;;
50906;SDS011;36882;27.680;85.304;2023-05-07T08:16:57;33.67;;;21.63;;
50906;SDS011;36882;27.680;85.304;2023-05-07T08:19:27;32.55;;;22.35;;
50906;SDS011;36882;27.680;85.304;2023-05-07T08:21:57;33.47;;;24.98;;
50906;SDS011;36882;27.680;85.304;2023-05-07T08:24:26;40.17;;;25.13;;
50906;SDS011;36882;27.680;85.304;2023-05-07T08:26:57;29.63;;;22.08;;
50906;SDS011;36882;27.680;85.304;2023-05-07T08:29:29;31.33;;;22.00;;
50906;SDS011;36882;27.680;85.304;2023-05-07T08:31:58;30.92;;;23.25;;
50906;SDS011;36882;27.680;85.304;2023-05-07T08:34:28;35.10;;;23.50;;
50906;SDS011;36882;27.680;85.304;2023-05-07T08:36:58;34.35;;;23.38;;
50906;SDS011;36882;27.680;85.304;2023-05-07T08:39:30;29.17;;;22.38;;
50906;SDS011;36882;27.680;85.304;2023-05-07T08:42:00;43.63;;;24.65;;
50906;SDS011;36882;27.680;85.304;2023-05-07T08:44:33;32.35;;;25.02;;
50906;SDS011;36882;27.680;85.304;2023-05-07T08:47:06;36.42;;;23.48;;
50906;SDS011;36882;27.680;85.304;2023-05-07T08:49:37;38.00;;;25.73;;
50906;SDS011;36882;27.680;85.304;2023-05-07T08:52:11;33.33;;;24.73;;
50906;SDS011;36882;27.680;85.304;2023-05-07T08:54:41;32.53;;;24.98;;
50906;SDS011;36882;27.680;85.304;2023-05-07T08:57:11;37.53;;;25.38;;
50906;SDS011;36882;27.680;85.304;2023-05-07T08:59:41;32.63;;;25.95;;
50906;SDS011;36882;27.680;85.304;2023-05-07T09:02:11;35.08;;;24.77;;
50906;SDS011;36882;27.680;85.304;2023-05-07T09:04:41;40.05;;;25.70;;
50906;SDS011;36882;27.680;85.304;2023-05-07T09:07:12;36.33;;;24.55;;
50906;SDS011;36882;27.680;85.304;2023-05-07T09:09:43;34.58;;;23.65;;
50906;SDS011;36882;27.680;85.304;2023-05-07T09:12:17;37.10;;;26.35;;
50906;SDS011;36882;27.680;85.304;2023-05-07T09:14:47;36.17;;;23.65;;
50906;SDS011;36882;27.680;85.304;2023-05-07T09:17:21;37.78;;;25.70;;
50906;SDS011;36882;27.680;85.304;2023-05-07T09:19:51;39.45;;;26.05;;
50906;SDS011;36882;27.680;85.304;2023-05-07T09:22:31;37.50;;;25.38;;
50906;SDS011;36882;27.680;85.304;2023-05-07T09:25:02;42.15;;;27.67;;
50906;SDS011;36882;27.680;85.304;2023-05-07T09:27:36;45.35;;;28.60;;
50906;SDS011;36882;27.680;85.304;2023-05-07T09:30:07;40.17;;;28.40;;
50906;SDS011;36882;27.680;85.304;2023-05-07T09:32:47;57.03;;;29.88;;
50906;SDS011;36882;27.680;85.304;2023-05-07T09:35:18;37.78;;;25.95;;
50906;SDS011;36882;27.680;85.304;2023-05-07T09:37:50;45.78;;;29.92;;
50906;SDS011;36882;27.680;85.304;2023-05-07T09:40:24;40.40;;;29.60;;
50906;SDS011;36882;27.680;85.304;2023-05-07T09:43:11;40.28;;;28.15;;
50906;SDS011;36882;27.680;85.304;2023-05-07T09:45:44;45.13;;;30.10;;
50906;SDS011;36882;27.680;85.304;2023-05-07T09:48:19;46.72;;;30.15;;
50906;SDS011;36882;27.680;85.304;2023-05-07T09:50:51;42.67;;;30.92;;
50906;SDS011;36882;27.680;85.304;2023-05-07T09:53:26;38.72;;;29.50;;
50906;SDS011;36882;27.680;85.304;2023-05-07T09:55:58;43.90;;;28.98;;
50906;SDS011;36882;27.680;85.304;2023-05-07T09:58:30;52.17;;;35.95;;
50906;SDS011;36882;27.680;85.304;2023-05-07T10:01:05;45.28;;;30.75;;
50906;SDS011;36882;27.680;85.304;2023-05-07T10:03:41;42.55;;;28.83;;
50906;SDS011;36882;27.680;85.304;2023-05-07T10:06:14;42.72;;;26.17;;
50906;SDS011;36882;27.680;85.304;2023-05-07T10:08:45;48.53;;;27.42;;
50906;SDS011;36882;27.680;85.304;2023-05-07T10:11:16;41.67;;;27.05;;
50906;SDS011;36882;27.680;85.304;2023-05-07T10:13:48;49.03;;;26.08;;
50906;SDS011;36882;27.680;85.304;2023-05-07T10:16:21;53.15;;;26.55;;
50906;SDS011;36882;27.680;85.304;2023-05-07T10:18:52;43.65;;;25.05;;
50906;SDS011;36882;27.680;85.304;2023-05-07T10:21:23;46.47;;;22.13;;
50906;SDS011;36882;27.680;85.304;2023-05-07T10:23:57;38.22;;;22.90;;
50906;SDS011;36882;27.680;85.304;2023-05-07T10:26:47;38.22;;;22.42;;
50906;SDS011;36882;27.680;85.304;2023-05-07T10:35:03;38.43;;;23.50;;
50906;SDS011;36882;27.680;85.304;2023-05-07T10:37:39;38.10;;;23.27;;
50906;SDS011;36882;27.680;85.304;2023-05-07T10:40:10;49.20;;;24.08;;
50906;SDS011;36882;27.680;85.304;2023-05-07T10:45:36;48.22;;;23.10;;
50906;SDS011;36882;27.680;85.304;2023-05-07T10:48:07;40.10;;;24.88;;
50906;SDS011;36882;27.680;85.304;2023-05-07T10:50:46;44.42;;;25.55;;
50906;SDS011;36882;27.680;85.304;2023-05-07T10:55:49;48.15;;;24.27;;
50906;SDS011;36882;27.680;85.304;2023-05-07T11:01:00;51.25;;;26.55;;
50906;SDS011;36882;27.680;85.304;2023-05-07T11:03:31;46.55;;;25.77;;
50906;SDS011;36882;27.680;85.304;2023-05-07T11:06:08;64.85;;;25.98;;
50906;SDS011;36882;27.680;85.304;2023-05-07T11:14:14;45.17;;;27.52;;
50906;SDS011;36882;27.680;85.304;2023-05-07T11:17:05;48.63;;;27.60;;
50906;SDS011;36882;27.680;85.304;2023-05-07T11:19:53;43.88;;;28.67;;
50906;SDS011;36882;27.680;85.304;2023-05-07T11:25:07;56.97;;;29.25;;
50906;SDS011;36882;27.680;85.304;2023-05-07T11:27:38;50.40;;;27.85;;
50906;SDS011;36882;27.680;85.304;2023-05-07T11:30:10;43.92;;;29.58;;
50906;SDS011;36882;27.680;85.304;2023-05-07T11:32:47;65.30;;;29.75;;
50906;SDS011;36882;27.680;85.304;2023-05-07T11:35:17;51.13;;;29.98;;
50906;SDS011;36882;27.680;85.304;2023-05-07T11:37:57;46.92;;;22.63;;
50906;SDS011;36882;27.680;85.304;2023-05-07T11:40:28;43.95;;;24.15;;
50906;SDS011;36882;27.680;85.304;2023-05-07T11:42:59;44.78;;;22.15;;
50906;SDS011;36882;27.680;85.304;2023-05-07T11:45:38;43.13;;;21.65;;
50906;SDS011;36882;27.680;85.304;2023-05-07T11:48:10;34.55;;;19.60;;
50906;SDS011;36882;27.680;85.304;2023-05-07T11:50:53;35.60;;;20.08;;
50906;SDS011;36882;27.680;85.304;2023-05-07T11:53:37;30.63;;;17.80;;
50906;SDS011;36882;27.680;85.304;2023-05-07T11:56:09;39.15;;;19.55;;
50906;SDS011;36882;27.680;85.304;2023-05-07T11:58:41;40.33;;;21.15;;
50906;SDS011;36882;27.680;85.304;2023-05-07T12:01:12;33.00;;;21.70;;
50906;SDS011;36882;27.680;85.304;2023-05-07T12:03:45;38.65;;;20.77;;
50906;SDS011;36882;27.680;85.304;2023-05-07T12:06:16;33.67;;;20.13;;
50906;SDS011;36882;27.680;85.304;2023-05-07T12:08:46;31.40;;;19.05;;
50906;SDS011;36882;27.680;85.304;2023-05-07T12:13:51;29.05;;;17.90;;
50906;SDS011;36882;27.680;85.304;2023-05-07T12:16:25;41.60;;;19.75;;
50906;SDS011;36882;27.680;85.304;2023-05-07T12:18:56;33.53;;;18.63;;
50906;SDS011;36882;27.680;85.304;2023-05-07T12:21:27;41.20;;;20.17;;
50906;SDS011;36882;27.680;85.304;2023-05-07T12:23:58;31.45;;;17.00;;
50906;SDS011;36882;27.680;85.304;2023-05-07T12:26:28;27.25;;;16.63;;
50906;SDS011;36882;27.680;85.304;2023-05-07T12:28:58;44.42;;;20.80;;
50906;SDS011;36882;27.680;85.304;2023-05-07T12:31:28;40.90;;;20.90;;
50906;SDS011;36882;27.680;85.304;2023-05-07T12:33:59;34.58;;;19.20;;
50906;SDS011;36882;27.680;85.304;2023-05-07T12:36:39;23.45;;;18.17;;
50906;SDS011;36882;27.680;85.304;2023-05-07T12:39:09;38.00;;;18.70;;
50906;SDS011;36882;27.680;85.304;2023-05-07T12:44:34;26.30;;;17.85;;
50906;SDS011;36882;27.680;85.304;2023-05-07T12:47:04;28.83;;;16.95;;
50906;SDS011;36882;27.680;85.304;2023-05-07T12:52:06;35.47;;;17.00;;
50906;SDS011;36882;27.680;85.304;2023-05-07T12:54:37;24.88;;;16.83;;
50906;SDS011;36882;27.680;85.304;2023-05-07T12:57:08;32.45;;;17.60;;
50906;SDS011;36882;27.680;85.304;2023-05-07T12:59:40;27.05;;;18.85;;
50906;SDS011;36882;27.680;85.304;2023-05-07T13:02:11;27.88;;;16.75;;
50906;SDS011;36882;27.680;85.304;2023-05-07T13:04:41;30.17;;;17.52;;
50906;SDS011;36882;27.680;85.304;2023-05-07T13:07:13;34.47;;;17.10;;
50906;SDS011;36882;27.680;85.304;2023-05-07T13:09:43;30.50;;;17.63;;
50906;SDS011;36882;27.680;85.304;2023-05-07T13:12:13;26.83;;;17.83;;
50906;SDS011;36882;27.680;85.304;2023-05-07T13:14:45;28.23;;;17.30;;
50906;SDS011;36882;27.680;85.304;2023-05-07T13:19:44;28.25;;;15.45;;
50906;SDS011;36882;27.680;85.304;2023-05-07T13:22:15;34.22;;;17.08;;
50906;SDS011;36882;27.680;85.304;2023-05-07T13:24:45;27.08;;;18.73;;
50906;SDS011;36882;27.680;85.304;2023-05-07T13:27:15;23.80;;;17.13;;
50906;SDS011;36882;27.680;85.304;2023-05-07T13:29:48;27.42;;;16.52;;
50906;SDS011;36882;27.680;85.304;2023-05-07T13:32:18;26.50;;;16.42;;
50906;SDS011;36882;27.680;85.304;2023-05-07T13:34:49;27.17;;;17.30;;
50906;SDS011;36882;27.680;85.304;2023-05-07T13:37:19;30.15;;;17.33;;
50906;SDS011;36882;27.680;85.304;2023-05-07T13:44:48;25.37;;;17.97;;
50906;SDS011;36882;27.680;85.304;2023-05-07T13:47:19;25.45;;;17.17;;
50906;SDS011;36882;27.680;85.304;2023-05-07T13:49:50;39.90;;;18.70;;
50906;SDS011;36882;27.680;85.304;2023-05-07T13:52:20;35.30;;;19.60;;
50906;SDS011;36882;27.680;85.304;2023-05-07T13:54:52;28.10;;;17.65;;
50906;SDS011;36882;27.680;85.304;2023-05-07T13:57:24;26.30;;;18.17;;
50906;SDS011;36882;27.680;85.304;2023-05-07T13:59:55;27.80;;;18.23;;
50906;SDS011;36882;27.680;85.304;2023-05-07T14:04:54;34.80;;;19.75;;
50906;SDS011;36882;27.680;85.304;2023-05-07T14:07:24;26.33;;;17.33;;
50906;SDS011;36882;27.680;85.304;2023-05-07T14:09:56;39.05;;;23.00;;
50906;SDS011;36882;27.680;85.304;2023-05-07T14:12:26;41.20;;;25.30;;
50906;SDS011;36882;27.680;85.304;2023-05-07T14:14:56;51.05;;;27.70;;
50906;SDS011;36882;27.680;85.304;2023-05-07T14:17:27;77.00;;;41.70;;
50906;SDS011;36882;27.680;85.304;2023-05-07T14:19:58;182.57;;;96.35;;
50906;SDS011;36882;27.680;85.304;2023-05-07T14:22:28;566.70;;;328.80;;
50906;SDS011;36882;27.680;85.304;2023-05-07T14:24:58;325.98;;;168.82;;
50906;SDS011;36882;27.680;85.304;2023-05-07T14:27:33;418.65;;;225.55;;
50906;SDS011;36882;27.680;85.304;2023-05-07T14:30:03;201.73;;;102.07;;
50906;SDS011;36882;27.680;85.304;2023-05-07T14:32:34;107.45;;;55.08;;
50906;SDS011;36882;27.680;85.304;2023-05-07T14:35:05;63.28;;;35.05;;
50906;SDS011;36882;27.680;85.304;2023-05-07T14:37:35;37.15;;;20.92;;
50906;SDS011;36882;27.680;85.304;2023-05-07T14:40:06;30.40;;;18.17;;
50906;SDS011;36882;27.680;85.304;2023-05-07T14:42:38;27.42;;;19.05;;
50906;SDS011;36882;27.680;85.304;2023-05-07T14:45:08;33.55;;;19.00;;
50906;SDS011;36882;27.680;85.304;2023-05-07T14:47:39;26.80;;;19.10;;
50906;SDS011;36882;27.680;85.304;2023-05-07T14:50:11;30.55;;;18.20;;
50906;SDS011;36882;27.680;85.304;2023-05-07T14:52:42;36.53;;;19.10;;
50906;SDS011;36882;27.680;85.304;2023-05-07T14:55:12;35.00;;;19.42;;
50906;SDS011;36882;27.680;85.304;2023-05-07T14:57:43;32.42;;;18.77;;
50906;SDS011;36882;27.680;85.304;2023-05-07T15:00:14;37.17;;;19.20;;
50906;SDS011;36882;27.680;85.304;2023-05-07T15:02:45;34.00;;;22.05;;
50906;SDS011;36882;27.680;85.304;2023-05-07T15:05:15;39.47;;;20.08;;
50906;SDS011;36882;27.680;85.304;2023-05-07T15:07:47;36.33;;;21.92;;
50906;SDS011;36882;27.680;85.304;2023-05-07T15:10:19;39.60;;;22.38;;
50906;SDS011;36882;27.680;85.304;2023-05-07T15:12:49;32.20;;;19.65;;
50906;SDS011;36882;27.680;85.304;2023-05-07T15:15:19;36.55;;;20.10;;
50906;SDS011;36882;27.680;85.304;2023-05-07T15:17:49;37.55;;;22.52;;
50906;SDS011;36882;27.680;85.304;2023-05-07T15:20:20;38.65;;;21.73;;
50906;SDS011;36882;27.680;85.304;2023-05-07T15:22:50;36.97;;;22.48;;
50906;SDS011;36882;27.680;85.304;2023-05-07T15:25:22;40.33;;;22.67;;
50906;SDS011;36882;27.680;85.304;2023-05-07T15:27:52;35.47;;;22.05;;
50906;SDS011;36882;27.680;85.304;2023-05-07T15:30:22;43.10;;;23.90;;
50906;SDS011;36882;27.680;85.304;2023-05-07T15:32:53;46.85;;;26.83;;
50906;SDS011;36882;27.680;85.304;2023-05-07T15:35:23;48.75;;;27.08;;
50906;SDS011;36882;27.680;85.304;2023-05-07T15:37:54;56.88;;;27.65;;
50906;SDS011;36882;27.680;85.304;2023-05-07T15:40:26;58.78;;;29.25;;
50906;SDS011;36882;27.680;85.304;2023-05-07T15:42:56;48.13;;;27.85;;
50906;SDS011;36882;27.680;85.304;2023-05-07T15:45:27;48.33;;;27.00;;
50906;SDS011;36882;27.680;85.304;2023-05-07T15:47:59;55.83;;;28.65;;
50906;SDS011;36882;27.680;85.304;2023-05-07T15:50:29;49.63;;;28.75;;
50906;SDS011;36882;27.680;85.304;2023-05-07T15:53:00;53.92;;;28.30;;
50906;SDS011;36882;27.680;85.304;2023-05-07T15:55:32;53.65;;;27.50;;
50906;SDS011;36882;27.680;85.304;2023-05-07T15:58:03;72.63;;;31.05;;
50906;SDS011;36882;27.680;85.304;2023-05-07T16:00:36;72.20;;;31.63;;
50906;SDS011;36882;27.680;85.304;2023-05-07T16:03:08;71.18;;;30.70;;
50906;SDS011;36882;27.680;85.304;2023-05-07T16:05:40;62.63;;;30.52;;
50906;SDS011;36882;27.680;85.304;2023-05-07T16:08:12;51.17;;;27.17;;
50906;SDS011;36882;27.680;85.304;2023-05-07T16:10:42;59.00;;;29.90;;
50906;SDS011;36882;27.680;85.304;2023-05-07T16:13:13;69.13;;;30.20;;
50906;SDS011;36882;27.680;85.304;2023-05-07T16:15:46;57.17;;;28.42;;
50906;SDS011;36882;27.680;85.304;2023-05-07T16:18:17;52.40;;;29.42;;
50906;SDS011;36882;27.680;85.304;2023-05-07T16:23:16;72.72;;;35.53;;
50906;SDS011;36882;27.680;85.304;2023-05-07T16:25:49;69.43;;;31.30;;
50906;SDS011;36882;27.680;85.304;2023-05-07T16:28:19;51.55;;;30.98;;
50906;SDS011;36882;27.680;85.304;2023-05-07T16:30:52;95.72;;;40.53;;
50906;SDS011;36882;27.680;85.304;2023-05-07T16:35:52;90.85;;;38.63;;
50906;SDS011;36882;27.680;85.304;2023-05-07T16:38:22;84.55;;;38.63;;
50906;SDS011;36882;27.680;85.304;2023-05-07T16:40:54;87.10;;;39.50;;
50906;SDS011;36882;27.680;85.304;2023-05-07T16:43:24;86.45;;;41.60;;
50906;SDS011;36882;27.680;85.304;2023-05-07T16:45:54;95.32;;;44.78;;
50906;SDS011;36882;27.680;85.304;2023-05-07T16:50:54;83.55;;;38.25;;
50906;SDS011;36882;27.680;85.304;2023-05-07T16:53:25;82.47;;;40.65;;
50906;SDS011;36882;27.680;85.304;2023-05-07T16:58:25;81.78;;;38.38;;
50906;SDS011;36882;27.680;85.304;2023-05-07T17:00:57;79.32;;;38.10;;
50906;SDS011;36882;27.680;85.304;2023-05-07T17:03:29;80.88;;;39.17;;
50906;SDS011;36882;27.680;85.304;2023-05-07T17:06:00;85.43;;;36.30;;
50906;SDS011;36882;27.680;85.304;2023-05-07T17:08:30;76.97;;;40.65;;
50906;SDS011;36882;27.680;85.304;2023-05-07T17:11:00;88.55;;;40.15;;
50906;SDS011;36882;27.680;85.304;2023-05-07T17:13:30;73.32;;;40.30;;
50906;SDS011;36882;27.680;85.304;2023-05-07T17:16:01;87.20;;;42.65;;
50906;SDS011;36882;27.680;85.304;2023-05-07T17:18:32;72.43;;;42.15;;
50906;SDS011;36882;27.680;85.304;2023-05-07T17:21:03;94.13;;;40.17;;
50906;SDS011;36882;27.680;85.304;2023-05-07T17:23:34;86.50;;;42.55;;
50906;SDS011;36882;27.680;85.304;2023-05-07T17:26:09;77.45;;;40.22;;
50906;SDS011;36882;27.680;85.304;2023-05-07T17:28:41;76.68;;;41.50;;
50906;SDS011;36882;27.680;85.304;2023-05-07T17:31:11;73.13;;;39.08;;
50906;SDS011;36882;27.680;85.304;2023-05-07T17:33:42;72.15;;;40.10;;
50906;SDS011;36882;27.680;85.304;2023-05-07T17:36:13;88.03;;;41.85;;
50906;SDS011;36882;27.680;85.304;2023-05-07T17:38:43;75.07;;;38.38;;
50906;SDS011;36882;27.680;85.304;2023-05-07T17:41:14;70.45;;;40.15;;
50906;SDS011;36882;27.680;85.304;2023-05-07T17:43:44;77.95;;;38.50;;
50906;SDS011;36882;27.680;85.304;2023-05-07T17:46:14;61.25;;;38.85;;
50906;SDS011;36882;27.680;85.304;2023-05-07T17:48:45;74.63;;;38.03;;
50906;SDS011;36882;27.680;85.304;2023-05-07T17:51:16;79.45;;;38.97;;
50906;SDS011;36882;27.680;85.304;2023-05-07T17:56:17;83.38;;;40.45;;
50906;SDS011;36882;27.680;85.304;2023-05-07T18:01:24;71.90;;;38.78;;
50906;SDS011;36882;27.680;85.304;2023-05-07T18:03:55;78.60;;;38.20;;
50906;SDS011;36882;27.680;85.304;2023-05-07T18:06:25;84.63;;;37.35;;
50906;SDS011;36882;27.680;85.304;2023-05-07T18:08:55;102.05;;;38.47;;
50906;SDS011;36882;27.680;85.304;2023-05-07T18:11:26;67.32;;;35.55;;
50906;SDS011;36882;27.680;85.304;2023-05-07T18:13:59;59.45;;;34.67;;
50906;SDS011;36882;27.680;85.304;2023-05-07T18:16:30;70.03;;;35.20;;
50906;SDS011;36882;27.680;85.304;2023-05-07T18:21:30;88.23;;;36.80;;
50906;SDS011;36882;27.680;85.304;2023-05-07T18:23:59;71.13;;;35.50;;
50906;SDS011;36882;27.680;85.304;2023-05-07T18:26:29;96.45;;;36.05;;
50906;SDS011;36882;27.680;85.304;2023-05-07T18:29:00;94.55;;;37.00;;
50906;SDS011;36882;27.680;85.304;2023-05-07T18:31:30;74.80;;;40.75;;
50906;SDS011;36882;27.680;85.304;2023-05-07T18:34:03;80.35;;;34.58;;
50906;SDS011;36882;27.680;85.304;2023-05-07T18:36:33;71.57;;;36.33;;
50906;SDS011;36882;27.680;85.304;2023-05-07T18:39:04;73.25;;;37.13;;
50906;SDS011;36882;27.680;85.304;2023-05-07T18:41:35;72.40;;;34.25;;
50906;SDS011;36882;27.680;85.304;2023-05-07T18:44:07;74.53;;;37.00;;
50906;SDS011;36882;27.680;85.304;2023-05-07T18:46:36;79.28;;;37.45;;
50906;SDS011;36882;27.680;85.304;2023-05-07T18:49:07;76.57;;;38.80;;
50906;SDS011;36882;27.680;85.304;2023-05-07T18:51:37;86.93;;;37.42;;
50906;SDS011;36882;27.680;85.304;2023-05-07T18:56:36;89.45;;;35.80;;
50906;SDS011;36882;27.680;85.304;2023-05-07T18:59:09;87.07;;;39.33;;
50906;SDS011;36882;27.680;85.304;2023-05-07T19:01:42;75.10;;;37.58;;
50906;SDS011;36882;27.680;85.304;2023-05-07T19:04:13;86.22;;;36.65;;
50906;SDS011;36882;27.680;85.304;2023-05-07T19:06:45;85.60;;;40.33;;
50906;SDS011;36882;27.680;85.304;2023-05-07T19:09:16;83.32;;;39.60;;
50906;SDS011;36882;27.680;85.304;2023-05-07T19:11:46;73.13;;;38.22;;
50906;SDS011;36882;27.680;85.304;2023-05-07T19:14:16;65.28;;;37.28;;
50906;SDS011;36882;27.680;85.304;2023-05-07T19:16:46;59.72;;;35.20;;
50906;SDS011;36882;27.680;85.304;2023-05-07T19:19:17;58.90;;;36.00;;
50906;SDS011;36882;27.680;85.304;2023-05-07T19:21:47;70.88;;;34.05;;
50906;SDS011;36882;27.680;85.304;2023-05-07T19:24:17;57.08;;;36.45;;
50906;SDS011;36882;27.680;85.304;2023-05-07T19:26:48;78.53;;;37.50;;
50906;SDS011;36882;27.680;85.304;2023-05-07T19:29:18;64.90;;;39.88;;
50906;SDS011;36882;27.680;85.304;2023-05-07T19:31:48;65.57;;;38.65;;
50906;SDS011;36882;27.680;85.304;2023-05-07T19:34:18;67.95;;;37.58;;
50906;SDS011;36882;27.680;85.304;2023-05-07T19:36:48;66.25;;;36.78;;
50906;SDS011;36882;27.680;85.304;2023-05-07T19:39:18;66.07;;;36.55;;
50906;SDS011;36882;27.680;85.304;2023-05-07T19:41:48;66.85;;;36.90;;
50906;SDS011;36882;27.680;85.304;2023-05-07T19:44:17;73.43;;;36.20;;
50906;SDS011;36882;27.680;85.304;2023-05-07T19:46:47;63.72;;;34.53;;
50906;SDS011;36882;27.680;85.304;2023-05-07T19:49:18;63.50;;;35.88;;
50906;SDS011;36882;27.680;85.304;2023-05-07T19:51:48;60.70;;;34.75;;
50906;SDS011;36882;27.680;85.304;2023-05-07T19:54:18;62.17;;;35.30;;
50906;SDS011;36882;27.680;85.304;2023-05-07T19:56:49;56.80;;;32.83;;
50906;SDS011;36882;27.680;85.304;2023-05-07T19:59:20;63.70;;;35.65;;
50906;SDS011;36882;27.680;85.304;2023-05-07T20:01:53;65.28;;;37.17;;
50906;SDS011;36882;27.680;85.304;2023-05-07T20:04:23;66.13;;;35.58;;
50906;SDS011;36882;27.680;85.304;2023-05-07T20:06:57;74.90;;;38.30;;
50906;SDS011;36882;27.680;85.304;2023-05-07T20:09:27;69.10;;;36.65;;
50906;SDS011;36882;27.680;85.304;2023-05-07T20:11:57;86.40;;;41.45;;
50906;SDS011;36882;27.680;85.304;2023-05-07T20:14:27;89.03;;;41.40;;
50906;SDS011;36882;27.680;85.304;2023-05-07T20:16:57;80.15;;;35.70;;
50906;SDS011;36882;27.680;85.304;2023-05-07T20:19:27;86.82;;;33.50;;
50906;SDS011;36882;27.680;85.304;2023-05-07T20:21:57;68.10;;;33.60;;
50906;SDS011;36882;27.680;85.304;2023-05-07T20:24:27;54.60;;;29.42;;
50906;SDS011;36882;27.680;85.304;2023-05-07T20:26:57;52.33;;;24.92;;
50906;SDS011;36882;27.680;85.304;2023-05-07T20:29:27;54.65;;;28.27;;
50906;SDS011;36882;27.680;85.304;2023-05-07T20:31:57;60.10;;;25.58;;
50906;SDS011;36882;27.680;85.304;2023-05-07T20:34:28;40.35;;;23.33;;
50906;SDS011;36882;27.680;85.304;2023-05-07T20:36:59;46.03;;;21.63;;
50906;SDS011;36882;27.680;85.304;2023-05-07T20:39:31;48.72;;;26.25;;
50906;SDS011;36882;27.680;85.304;2023-05-07T20:42:00;64.88;;;26.40;;
50906;SDS011;36882;27.680;85.304;2023-05-07T20:44:34;49.15;;;23.38;;
50906;SDS011;36882;27.680;85.304;2023-05-07T20:47:05;43.60;;;23.67;;
50906;SDS011;36882;27.680;85.304;2023-05-07T20:49:35;48.17;;;25.40;;
50906;SDS011;36882;27.680;85.304;2023-05-07T20:52:05;50.47;;;28.10;;
50906;SDS011;36882;27.680;85.304;2023-05-07T20:54:35;47.05;;;27.90;;
50906;SDS011;36882;27.680;85.304;2023-05-07T20:57:07;78.53;;;34.97;;
50906;SDS011;36882;27.680;85.304;2023-05-07T20:59:37;75.45;;;34.60;;
50906;SDS011;36882;27.680;85.304;2023-05-07T21:02:09;60.97;;;32.17;;
50906;SDS011;36882;27.680;85.304;2023-05-07T21:04:39;62.30;;;33.33;;
50906;SDS011;36882;27.680;85.304;2023-05-07T21:07:09;64.25;;;33.83;;
50906;SDS011;36882;27.680;85.304;2023-05-07T21:12:09;61.97;;;33.53;;
50906;SDS011;36882;27.680;85.304;2023-05-07T21:14:39;53.08;;;31.35;;
50906;SDS011;36882;27.680;85.304;2023-05-07T21:17:10;62.63;;;34.03;;
50906;SDS011;36882;27.680;85.304;2023-05-07T21:19:40;58.50;;;35.08;;
50906;SDS011;36882;27.680;85.304;2023-05-07T21:24:39;68.93;;;35.40;;
50906;SDS011;36882;27.680;85.304;2023-05-07T21:27:09;62.03;;;34.05;;
50906;SDS011;36882;27.680;85.304;2023-05-07T21:29:39;68.22;;;32.50;;
50906;SDS011;36882;27.680;85.304;2023-05-07T21:32:08;62.28;;;36.50;;
50906;SDS011;36882;27.680;85.304;2023-05-07T21:34:39;62.28;;;34.35;;
50906;SDS011;36882;27.680;85.304;2023-05-07T21:37:09;66.50;;;36.45;;
50906;SDS011;36882;27.680;85.304;2023-05-07T21:39:41;67.13;;;37.65;;
50906;SDS011;36882;27.680;85.304;2023-05-07T21:44:41;78.13;;;35.75;;
50906;SDS011;36882;27.680;85.304;2023-05-07T21:47:11;58.30;;;33.45;;
50906;SDS011;36882;27.680;85.304;2023-05-07T21:49:40;52.38;;;30.42;;
50906;SDS011;36882;27.680;85.304;2023-05-07T21:52:14;56.33;;;30.38;;
50906;SDS011;36882;27.680;85.304;2023-05-07T21:54:44;59.58;;;29.55;;
50906;SDS011;36882;27.680;85.304;2023-05-07T21:57:14;59.67;;;29.98;;
50906;SDS011;36882;27.680;85.304;2023-05-07T21:59:43;57.65;;;28.52;;
50906;SDS011;36882;27.680;85.304;2023-05-07T22:02:13;63.67;;;27.45;;
50906;SDS011;36882;27.680;85.304;2023-05-07T22:04:43;47.78;;;27.42;;
50906;SDS011;36882;27.680;85.304;2023-05-07T22:07:13;54.42;;;29.25;;
50906;SDS011;36882;27.680;85.304;2023-05-07T22:09:45;51.10;;;28.50;;
50906;SDS011;36882;27.680;85.304;2023-05-07T22:12:14;55.95;;;28.08;;
50906;SDS011;36882;27.680;85.304;2023-05-07T22:14:44;46.80;;;27.23;;
50906;SDS011;36882;27.680;85.304;2023-05-07T22:19:44;58.10;;;29.05;;
50906;SDS011;36882;27.680;85.304;2023-05-07T22:22:13;54.97;;;29.98;;
50906;SDS011;36882;27.680;85.304;2023-05-07T22:24:44;49.83;;;31.13;;
50906;SDS011;36882;27.680;85.304;2023-05-07T22:27:14;48.17;;;27.02;;
50906;SDS011;36882;27.680;85.304;2023-05-07T22:29:43;60.20;;;30.05;;
50906;SDS011;36882;27.680;85.304;2023-05-07T22:32:13;55.63;;;29.77;;
50906;SDS011;36882;27.680;85.304;2023-05-07T22:34:43;59.05;;;30.10;;
50906;SDS011;36882;27.680;85.304;2023-05-07T22:37:13;57.83;;;30.70;;
50906;SDS011;36882;27.680;85.304;2023-05-07T22:39:42;58.75;;;29.52;;
50906;SDS011;36882;27.680;85.304;2023-05-07T22:42:12;48.90;;;28.10;;
50906;SDS011;36882;27.680;85.304;2023-05-07T22:44:42;58.85;;;29.80;;
50906;SDS011;36882;27.680;85.304;2023-05-07T22:47:11;49.65;;;29.08;;
50906;SDS011;36882;27.680;85.304;2023-05-07T22:49:41;48.85;;;29.65;;
50906;SDS011;36882;27.680;85.304;2023-05-07T22:52:11;68.35;;;33.95;;
50906;SDS011;36882;27.680;85.304;2023-05-07T22:54:41;62.08;;;35.35;;
50906;SDS011;36882;27.680;85.304;2023-05-07T22:57:11;67.63;;;38.05;;
50906;SDS011;36882;27.680;85.304;2023-05-07T22:59:40;71.70;;;36.55;;